Daikoku — JD3247 — position and weather

sailwx.info

Track history (hours):
 
Tides and Currents Weather Stations Pressure Air Temp Water Temp Dewpoint Dewpoint Depression Visibility Wind Speed Wind Dir Waves Ship Positions

Daikoku

Last reported at 2015-Apr-17 07:14 UTC. Time now 2015-Apr-21 09:46 UTC.
Position N 34°37' E 134°59'.

Length 95 m; draft 3.5 m.

Type: Cargo ship. MMSI: 431003009.

Date/timePositionNaut miles runAvg speedWind from/ knotsBaromVisibWave heightAir tempDewpointWater temp
2015-Apr-17 07:14N 34°37' E 134°59'7 9.7
2015-Apr-17 06:33N 34°34' E 135°06'1211.8
2015-Apr-17 05:33N 34°23' E 135°01'1111.0
2015-Apr-17 04:31N 34°12' E 134°59'1111.7
2015-Apr-17 03:33N 34°00' E 135°00'21 0.5
2015-Apr-15 07:08N 34°22' E 135°01'711.4
2015-Apr-15 06:33N 34°27' E 135°07'1111.1
2015-Apr-15 05:33N 34°34' E 135°17'8 7.9
2015-Apr-15 04:33N 34°38' E 135°25'0 0.0
2015-Apr-15 03:28N 34°38' E 135°25'0 0.0
2015-Apr-15 02:28N 34°38' E 135°25'2 2.0
2015-Apr-15 01:33N 34°38' E 135°23'1212.1
2015-Apr-15 00:33N 34°35' E 135°09'1212.0
2015-Apr-14 23:33N 34°35' E 134°54'  
2015-Apr-10 06:13N 34°37' E 134°59'711.1
2015-Apr-10 05:33N 34°36' E 135°08'6 6.5
2015-Apr-10 04:33N 34°39' E 135°15'0 0.0
2015-Apr-10 03:17N 34°39' E 135°15'0 0.0
2015-Apr-10 02:29N 34°39' E 135°15'0 0.3
2015-Apr-10 01:34N 34°39' E 135°15'2 2.0
2015-Apr-10 00:33N 34°41' E 135°16'4 3.4
2015-Apr-09 23:24N 34°37' E 135°17'1 1.7
2015-Apr-09 22:33N 34°36' E 135°15'1211.9
2015-Apr-09 21:33N 34°37' E 135°01'4 0.1
2015-Apr-08 08:19N 34°37' E 134°56'6 8.4
2015-Apr-08 07:33N 34°36' E 135°04'1010.2
2015-Apr-08 06:33N 34°39' E 135°16'2 1.9
2015-Apr-08 05:34N 34°41' E 135°17'3 2.4
2015-Apr-08 04:28N 34°40' E 135°14'0 0.0
2015-Apr-08 03:16N 34°40' E 135°14'0 0.3
2015-Apr-08 02:33N 34°40' E 135°14'3 3.3
2015-Apr-08 01:33N 34°38' E 135°18'6 5.9
2015-Apr-08 00:30N 34°38' E 135°25'0 0.2
2015-Apr-07 23:32N 34°38' E 135°25'2 1.8
2015-Apr-07 22:34N 34°38' E 135°23'7 7.3
2015-Apr-07 21:33N 34°34' E 135°15'1010.5
2015-Apr-07 20:33N 34°36' E 135°03'1311.6
2015-Apr-07 19:28N 34°33' E 134°48'  
Track history (hours):
 
Tides and Currents Weather Stations Pressure Air Temp Water Temp Dewpoint Dewpoint Depression Visibility Wind Speed Wind Dir Waves Ship Positions

Daikoku

Last reported at 2015-Apr-17 07:14 UTC. Time now 2015-Apr-21 09:46 UTC.
Position N 34°37' E 134°59'.

Length 95 m; draft 3.5 m.

Type: Cargo ship. MMSI: 431003009.

Date/timePositionNaut miles runAvg speedWind from/ knotsBaromVisibWave heightAir tempDewpointWater temp
2015-Apr-17 07:14N 34°37' E 134°59'7 9.7
2015-Apr-17 06:33N 34°34' E 135°06'1211.8
2015-Apr-17 05:33N 34°23' E 135°01'1111.0
2015-Apr-17 04:31N 34°12' E 134°59'1111.7
2015-Apr-17 03:33N 34°00' E 135°00'21 0.5
2015-Apr-15 07:08N 34°22' E 135°01'711.4
2015-Apr-15 06:33N 34°27' E 135°07'1111.1
2015-Apr-15 05:33N 34°34' E 135°17'8 7.9
2015-Apr-15 04:33N 34°38' E 135°25'0 0.0
2015-Apr-15 03:28N 34°38' E 135°25'0 0.0
2015-Apr-15 02:28N 34°38' E 135°25'2 2.0
2015-Apr-15 01:33N 34°38' E 135°23'1212.1
2015-Apr-15 00:33N 34°35' E 135°09'1212.0
2015-Apr-14 23:33N 34°35' E 134°54'  
2015-Apr-10 06:13N 34°37' E 134°59'711.1
2015-Apr-10 05:33N 34°36' E 135°08'6 6.5
2015-Apr-10 04:33N 34°39' E 135°15'0 0.0
2015-Apr-10 03:17N 34°39' E 135°15'0 0.0
2015-Apr-10 02:29N 34°39' E 135°15'0 0.3
2015-Apr-10 01:34N 34°39' E 135°15'2 2.0
2015-Apr-10 00:33N 34°41' E 135°16'4 3.4
2015-Apr-09 23:24N 34°37' E 135°17'1 1.7
2015-Apr-09 22:33N 34°36' E 135°15'1211.9
2015-Apr-09 21:33N 34°37' E 135°01'4 0.1
2015-Apr-08 08:19N 34°37' E 134°56'6 8.4
2015-Apr-08 07:33N 34°36' E 135°04'1010.2
2015-Apr-08 06:33N 34°39' E 135°16'2 1.9
2015-Apr-08 05:34N 34°41' E 135°17'3 2.4
2015-Apr-08 04:28N 34°40' E 135°14'0 0.0
2015-Apr-08 03:16N 34°40' E 135°14'0 0.3
2015-Apr-08 02:33N 34°40' E 135°14'3 3.3
2015-Apr-08 01:33N 34°38' E 135°18'6 5.9
2015-Apr-08 00:30N 34°38' E 135°25'0 0.2
2015-Apr-07 23:32N 34°38' E 135°25'2 1.8
2015-Apr-07 22:34N 34°38' E 135°23'7 7.3
2015-Apr-07 21:33N 34°34' E 135°15'1010.5
2015-Apr-07 20:33N 34°36' E 135°03'1311.6
2015-Apr-07 19:28N 34°33' E 134°48'  

Dump ship's entire track history